Time;durP1;ratioP1;P1;durP2;ratioP2;P2;SDS_P1;SDS_P2;PMS_P1;PMS_P2;Temp;Humidity;BMP_temperature;BMP_pressure;BME280_temperature;BME280_humidity;BME280_pressure;Samples;Min_cycle;Max_cycle;Signal;HPM_P1;HPM_P2
2022/01/14 00:01:26;;;;;;;1.02;1.02;;;;;;;6.91;68.27;100697.50;5088593;28;20544;-70
2022/01/14 00:03:53;;;;;;;30.05;16.95;;;;;;;6.89;68.43;100719.44;5086120;28;20044;-72
2022/01/14 00:06:20;;;;;;;0.38;0.38;;;;;;;6.97;68.13;100715.56;5087242;28;20040;-77
2022/01/14 00:08:49;;;;;;;14.85;9.45;;;;;;;6.93;68.63;100709.63;5088844;28;20073;-78
2022/01/14 00:11:18;;;;;;;0.20;0.20;;;;;;;6.95;68.24;100720.94;5088066;28;20197;-77
2022/01/14 00:13:53;;;;;;;1.45;0.98;;;;;;;6.98;68.09;100718.13;5094310;28;20367;-76
2022/01/14 00:16:20;;;;;;;2.53;2.17;;;;;;;6.97;68.13;100716.44;5108008;28;20044;-76
2022/01/14 00:18:47;;;;;;;0.85;0.85;;;;;;;6.98;68.10;100718.13;5107839;28;20044;-78
2022/01/14 00:21:14;;;;;;;51.67;33.50;;;;;;;6.91;68.33;100702.75;5108107;28;20131;-76
2022/01/14 00:23:44;;;;;;;19.48;12.40;;;;;;;6.94;68.40;100695.59;5106632;28;20053;-76
2022/01/14 00:31:55;;;;;;;6.22;4.75;;;;;;;6.98;67.85;100697.13;5108596;28;20661;-71
2022/01/14 00:34:22;;;;;;;0.68;0.68;;;;;;;7.03;67.72;100686.41;5109684;28;20047;-78
2022/01/14 00:36:49;;;;;;;1.02;1.02;;;;;;;7.04;67.65;100688.94;5108309;28;20051;-74
2022/01/14 00:39:16;;;;;;;1.38;1.35;;;;;;;7.11;67.61;100675.47;5107307;28;20074;-78
2022/01/14 00:41:45;;;;;;;1.15;1.13;;;;;;;7.07;67.76;100686.13;5107695;28;20079;-75
2022/01/14 00:44:15;;;;;;;29.45;19.10;;;;;;;6.97;68.48;100658.66;5109520;28;20055;-73
2022/01/14 00:46:44;;;;;;;1.55;1.45;;;;;;;7.00;68.10;100663.75;5107430;28;20065;-75
2022/01/14 00:49:15;;;;;;;0.50;0.47;;;;;;;7.00;68.24;100674.25;5106329;28;20386;-76
2022/01/14 00:51:42;;;;;;;1.50;1.45;;;;;;;7.06;67.97;100673.13;5106342;28;20127;-76
2022/01/14 00:54:12;;;;;;;1.05;1.05;;;;;;;6.99;68.24;100669.94;5109636;28;20086;-75
2022/01/14 00:56:49;;;;;;;0.77;0.77;;;;;;;6.98;68.05;100681.34;5106912;28;20039;-75
2022/01/14 00:59:18;;;;;;;0.73;0.73;;;;;;;6.96;68.22;100677.13;5107387;28;20101;-75
2022/01/14 01:01:48;;;;;;;0.10;0.10;;;;;;;6.94;68.14;100689.50;5106815;28;20471;-72
2022/01/14 01:04:18;;;;;;;2.15;2.05;;;;;;;6.91;68.17;100650.25;5109396;28;20182;-76
2022/01/14 01:06:46;;;;;;;0.82;0.82;;;;;;;6.88;68.17;100670.47;5108110;28;20051;-73
2022/01/14 01:09:14;;;;;;;0.32;0.32;;;;;;;6.88;68.21;100686.25;5106700;28;20414;-72
2022/01/14 01:11:45;;;;;;;3.15;2.83;;;;;;;6.86;68.11;100653.09;5107735;28;20528;-73
2022/01/14 01:14:16;;;;;;;0.82;0.82;;;;;;;6.88;68.12;100669.66;5108355;28;20048;-73
2022/01/14 01:16:49;;;;;;;18.95;8.15;;;;;;;6.86;68.21;100666.22;5121232;28;20494;-74
2022/01/14 01:19:17;;;;;;;0.17;0.17;;;;;;;6.82;68.20;100681.28;5121631;28;20053;-69
2022/01/14 01:21:46;;;;;;;0.65;0.65;;;;;;;6.79;68.78;100675.31;5122067;28;20533;-72
2022/01/14 01:24:15;;;;;;;4.90;3.40;;;;;;;6.81;68.51;100658.59;5125940;28;20043;-72
2022/01/14 01:26:43;;;;;;;1.58;1.55;;;;;;;6.80;68.45;100672.63;5124504;28;20115;-75
2022/01/14 01:29:32;;;;;;;1.00;0.85;;;;;;;6.80;68.30;100653.41;5123203;28;20131;-77
2022/01/14 01:32:01;;;;;;;0.45;0.45;;;;;;;6.78;68.37;100653.47;5118303;28;20047;-74
2022/01/14 01:34:28;;;;;;;1.33;1.27;;;;;;;6.76;68.52;100638.75;5120740;28;20044;-67
2022/01/14 01:36:57;;;;;;;0.20;0.20;;;;;;;6.79;68.50;100630.69;5116898;28;20122;-72
2022/01/14 01:39:28;;;;;;;2.10;2.00;;;;;;;6.80;68.53;100638.50;5109155;28;20040;-71
2022/01/14 01:41:58;;;;;;;1.08;1.00;;;;;;;6.82;68.30;100634.00;5107667;28;20059;-75
2022/01/14 01:44:27;;;;;;;8.63;4.53;;;;;;;6.81;68.64;100600.84;5109866;28;20059;-72
2022/01/14 01:46:55;;;;;;;0.63;0.63;;;;;;;6.83;68.50;100635.72;5072195;28;20607;-71
2022/01/14 01:49:27;;;;;;;0.45;0.45;;;;;;;6.92;68.34;100618.66;5107354;28;20075;-72
2022/01/14 01:51:55;;;;;;;0.52;0.52;;;;;;;6.91;68.37;100622.19;5107737;28;20051;-73
2022/01/14 01:54:26;;;;;;;40.33;26.10;;;;;;;6.91;68.42;100584.59;5110077;28;20105;-71
2022/01/14 01:56:53;;;;;;;0.55;0.55;;;;;;;6.93;68.57;100612.47;5108726;28;20093;-73
2022/01/14 01:59:21;;;;;;;0.10;0.10;;;;;;;6.94;68.30;100608.91;5108324;28;20425;-78
2022/01/14 02:01:49;;;;;;;0.40;0.40;;;;;;;6.96;68.29;100604.44;5107216;28;20046;-70
2022/01/14 02:04:16;;;;;;;0.32;0.32;;;;;;;7.03;68.19;100589.22;5106869;28;20052;-74
2022/01/14 02:06:57;;;;;;;1.52;1.42;;;;;;;7.02;68.14;100596.25;5112970;28;20111;-77
2022/01/14 02:09:25;;;;;;;0.20;0.20;;;;;;;7.05;68.03;100584.72;5119116;28;20130;-70
2022/01/14 02:11:53;;;;;;;0.77;0.77;;;;;;;7.03;68.30;100594.47;5106580;28;20686;-72
2022/01/14 02:14:42;;;;;;;8.10;4.50;;;;;;;7.01;68.04;100593.69;5108518;28;20086;-73
2022/01/14 02:22:47;;;;;;;1.33;1.33;;;;;;;6.96;68.28;100569.47;5105073;28;20547;-76
2022/01/14 02:25:15;;;;;;;0.10;0.10;;;;;;;6.95;68.22;100565.13;5110659;28;20210;-75
2022/01/14 02:27:44;;;;;;;18.63;12.05;;;;;;;6.90;68.42;100557.50;5109377;28;20784;-69
2022/01/14 02:30:13;;;;;;;2.92;2.60;;;;;;;6.93;68.41;100575.69;5109526;28;20051;-76
2022/01/14 02:32:41;;;;;;;11.95;7.93;;;;;;;6.95;68.49;100542.34;5112559;28;20046;-76
2022/01/14 02:35:12;;;;;;;0.10;0.10;;;;;;;6.96;68.40;100557.16;5110520;28;20517;-76
2022/01/14 02:37:40;;;;;;;5.65;4.05;;;;;;;6.98;68.30;100552.69;5116780;28;20054;-72
2022/01/14 02:40:08;;;;;;;0.10;0.10;;;;;;;6.98;68.41;100549.22;5118715;28;20086;-71
2022/01/14 02:42:35;;;;;;;0.80;0.80;;;;;;;6.97;68.31;100543.13;5115292;28;20694;-73
2022/01/14 02:45:06;;;;;;;0.10;0.10;;;;;;;6.99;68.24;100525.50;5119174;28;20116;-70
2022/01/14 02:47:33;;;;;;;0.00;0.00;;;;;;;7.01;68.30;100526.25;5114644;28;20077;-76
2022/01/14 02:50:00;;;;;;;0.10;0.10;;;;;;;6.98;68.39;100541.34;5116473;28;20056;-75
2022/01/14 02:52:42;;;;;;;0.52;0.52;;;;;;;6.96;68.42;100536.16;5115307;28;20120;-72
2022/01/14 02:55:18;;;;;;;0.40;0.40;;;;;;;6.95;68.60;100525.72;5115960;28;20054;-70
2022/01/14 02:57:48;;;;;;;12.23;1.85;;;;;;;6.93;68.68;100525.81;5115884;28;20044;-73
2022/01/14 03:00:17;;;;;;;0.30;0.30;;;;;;;6.94;68.72;100529.31;5115007;28;20126;-74
2022/01/14 03:02:46;;;;;;;4.97;2.92;;;;;;;6.93;68.75;100499.53;5120324;28;20063;-75
2022/01/14 03:05:15;;;;;;;13.63;11.02;;;;;;;6.90;68.83;100494.47;5117835;28;20047;-73
2022/01/14 03:07:45;;;;;;;13.05;7.43;;;;;;;6.92;68.92;100497.88;5113841;28;20386;-71
2022/01/14 03:10:14;;;;;;;32.17;21.70;;;;;;;6.85;69.13;100480.75;5113498;28;20056;-77
2022/01/14 03:12:43;;;;;;;0.10;0.10;;;;;;;6.88;69.12;100510.31;5111985;28;20047;-69
2022/01/14 03:15:11;;;;;;;0.10;0.10;;;;;;;6.94;68.94;100508.28;5110987;28;20043;-76
2022/01/14 03:17:39;;;;;;;0.20;0.20;;;;;;;6.95;68.85;100492.47;5090660;28;20402;-73
2022/01/14 03:20:14;;;;;;;1.52;1.42;;;;;;;6.98;68.65;100487.03;5111005;28;20065;-75
2022/01/14 03:22:52;;;;;;;0.10;0.10;;;;;;;7.01;68.51;100492.13;5090504;28;20048;-74
2022/01/14 03:25:48;;;;;;;19.25;14.07;;;;;;;6.97;68.43;100458.22;5110349;28;20048;-76
2022/01/14 03:28:16;;;;;;;;;;;;;;;7.20;67.95;100488.50;5114527;28;20123;-75
2022/01/14 03:30:43;;;;;;;0.90;0.90;;;;;;;7.02;68.09;100493.84;5114197;28;20154;-75
2022/01/14 03:33:10;;;;;;;0.00;0.00;;;;;;;7.00;68.30;100466.78;5111916;28;20047;-74
2022/01/14 03:35:37;;;;;;;1.88;1.65;;;;;;;7.02;68.18;100467.56;5113604;28;20048;-75
2022/01/14 03:38:04;;;;;;;0.00;0.00;;;;;;;6.98;68.63;100487.03;5112825;28;20119;-77
2022/01/14 03:40:33;;;;;;;12.68;8.07;;;;;;;6.99;68.62;100478.22;5111722;28;20048;-70
2022/01/14 03:43:00;;;;;;;0.50;0.50;;;;;;;7.05;68.63;100470.00;5110498;28;20043;-74
2022/01/14 03:45:28;;;;;;;0.65;0.65;;;;;;;7.08;68.41;100461.13;5111948;28;20112;-74
2022/01/14 03:47:55;;;;;;;11.90;7.43;;;;;;;7.02;68.68;100453.56;5110989;28;20835;-75
2022/01/14 03:50:22;;;;;;;1.00;1.00;;;;;;;6.98;69.05;100466.00;5115062;28;20054;-77
2022/01/14 03:52:49;;;;;;;0.90;0.90;;;;;;;7.02;68.88;100479.81;5113617;28;20093;-76
2022/01/14 03:55:16;;;;;;;0.30;0.30;;;;;;;7.02;68.65;100467.56;5113529;28;20074;-80
2022/01/14 03:57:45;;;;;;;0.55;0.55;;;;;;;7.05;68.86;100485.75;5093847;28;20066;-72
2022/01/14 04:00:13;;;;;;;14.27;10.15;;;;;;;6.99;68.94;100472.13;5111516;28;20053;-72
2022/01/14 04:02:40;;;;;;;13.88;7.97;;;;;;;6.99;69.22;100493.16;5111739;28;20044;-75
2022/01/14 04:05:08;;;;;;;32.40;24.40;;;;;;;6.98;69.13;100497.53;5111569;28;20047;-78
2022/01/14 04:07:35;;;;;;;57.72;34.03;;;;;;;6.90;69.67;100507.59;5112187;28;20309;-78
2022/01/14 04:10:03;;;;;;;1.20;1.10;;;;;;;6.98;69.16;100500.16;5110998;28;20051;-73
2022/01/14 04:12:44;;;;;;;16.30;11.65;;;;;;;6.97;69.08;100480.09;5111638;28;20043;-73
2022/01/14 04:17:59;;;;;;;0.10;0.10;;;;;;;6.99;68.84;100480.84;5111425;28;20766;-76
2022/01/14 04:20:27;;;;;;;0.30;0.30;;;;;;;6.99;68.94;100480.84;5108255;28;20051;-74
2022/01/14 04:22:54;;;;;;;41.75;24.52;;;;;;;6.86;69.45;100483.28;5107285;28;20047;-71
2022/01/14 04:25:22;;;;;;;59.83;36.03;;;;;;;6.81;69.44;100447.72;5109382;28;20508;-73
2022/01/14 04:27:49;;;;;;;64.53;37.20;;;;;;;6.70;70.00;100471.91;5109101;28;20483;-67
2022/01/14 04:30:18;;;;;;;66.95;33.95;;;;;;;6.69;70.13;100460.53;5115707;28;20607;-70
2022/01/14 04:32:46;;;;;;;71.53;39.53;;;;;;;6.62;70.14;100467.06;5119785;28;20123;-78
2022/01/14 04:35:13;;;;;;;0.10;0.10;;;;;;;6.73;70.11;100487.47;5108894;28;20456;-74
2022/01/14 04:37:41;;;;;;;72.13;39.85;;;;;;;6.60;70.41;100463.66;5109316;28;20043;-70
2022/01/14 04:40:09;;;;;;;68.10;35.70;;;;;;;6.56;70.59;100456.88;5110572;28;20509;-79
2022/01/14 04:42:37;;;;;;;67.07;27.60;;;;;;;6.56;70.64;100463.91;5110595;28;20055;-76
2022/01/14 04:45:05;;;;;;;76.10;32.47;;;;;;;6.60;70.53;100466.28;5099222;28;20065;-74
2022/01/14 04:47:44;;;;;;;68.00;49.92;;;;;;;6.53;70.74;100449.16;5113761;28;20138;-71
2022/01/14 04:50:12;;;;;;;63.83;24.65;;;;;;;6.55;70.61;100460.44;5109147;28;20055;-72
2022/01/14 04:52:40;;;;;;;56.65;26.00;;;;;;;6.54;70.62;100456.13;5108137;28;20059;-76
2022/01/14 04:55:08;;;;;;;66.70;29.42;;;;;;;6.56;70.58;100437.69;5108521;28;20398;-73
2022/01/14 04:57:35;;;;;;;60.70;25.10;;;;;;;6.59;70.60;100443.63;5111394;28;20048;-72
2022/01/14 05:00:03;;;;;;;80.85;38.95;;;;;;;6.53;70.75;100428.19;5114648;28;20761;-70
2022/01/14 05:02:30;;;;;;;4.70;1.58;;;;;;;6.66;70.35;100420.50;5108123;28;20540;-72
2022/01/14 05:04:59;;;;;;;63.25;34.67;;;;;;;6.57;70.63;100429.72;5109576;28;20189;-75
2022/01/14 05:07:27;;;;;;;80.40;41.92;;;;;;;6.57;70.73;100434.09;5107430;28;20044;-71
2022/01/14 05:10:14;;;;;;;61.33;25.20;;;;;;;6.61;70.63;100419.88;5108552;28;20124;-72
2022/01/14 05:12:41;;;;;;;63.60;42.83;;;;;;;6.53;70.67;100406.34;5109743;28;20131;-77
2022/01/14 05:15:11;;;;;;;69.47;41.28;;;;;;;6.46;71.06;100408.44;5112003;28;20130;-80
2022/01/14 05:17:38;;;;;;;61.33;37.83;;;;;;;6.42;71.22;100399.03;5076367;28;20086;-71
2022/01/14 05:20:08;;;;;;;59.08;39.40;;;;;;;6.41;71.26;100392.94;5112124;28;20040;-80
2022/01/14 05:22:37;;;;;;;63.08;37.42;;;;;;;6.42;71.37;100409.53;5110984;28;20058;-76
2022/01/14 05:25:07;;;;;;;56.88;41.13;;;;;;;6.45;71.37;100404.13;5113181;28;20054;-72
2022/01/14 05:27:34;;;;;;;67.13;37.55;;;;;;;6.42;71.33;100407.75;5106749;28;20540;-74
2022/01/14 05:30:01;;;;;;;68.28;36.60;;;;;;;6.43;71.40;100400.75;5070290;28;20388;-71
2022/01/14 05:32:28;;;;;;;53.38;31.98;;;;;;;6.49;70.91;100392.53;5096156;28;20043;-71
2022/01/14 05:34:56;;;;;;;57.63;35.92;;;;;;;6.49;71.26;100392.53;5090833;28;20127;-73
2022/01/14 05:37:25;;;;;;;43.80;26.15;;;;;;;6.57;71.07;100390.38;5089605;28;20135;-71
2022/01/14 05:39:52;;;;;;;47.75;36.55;;;;;;;6.56;70.88;100375.53;5049127;28;20054;-74
2022/01/14 05:42:20;;;;;;;44.70;29.15;;;;;;;6.60;70.87;100382.31;5085667;28;20044;-71
2022/01/14 05:44:47;;;;;;;42.03;29.75;;;;;;;6.61;70.80;100363.00;5087624;28;20064;-72
2022/01/14 05:47:14;;;;;;;40.63;26.75;;;;;;;6.63;70.87;100379.53;5109038;28;20082;-75
2022/01/14 05:49:41;;;;;;;41.15;30.65;;;;;;;6.56;70.92;100365.03;5108102;28;20164;-76
2022/01/14 05:52:08;;;;;;;39.45;26.52;;;;;;;6.65;70.67;100374.19;5106164;28;20117;-70
2022/01/14 05:54:37;;;;;;;39.10;27.17;;;;;;;6.65;70.68;100348.78;5107196;28;20043;-74
2022/01/14 05:57:04;;;;;;;32.20;22.58;;;;;;;6.72;70.60;100362.44;5105246;28;20139;-70
2022/01/14 05:59:31;;;;;;;34.30;23.00;;;;;;;6.72;70.31;100343.19;5105493;28;20048;-74
2022/01/14 06:01:58;;;;;;;30.80;18.08;;;;;;;6.82;69.99;100352.25;5093313;28;20044;-69
2022/01/14 06:04:25;;;;;;;31.52;18.05;;;;;;;6.81;69.97;100351.41;5084720;28;20075;-67
2022/01/14 06:06:53;;;;;;;30.73;17.90;;;;;;;6.87;69.98;100331.84;5088591;28;20309;-71
2022/01/14 06:09:20;;;;;;;30.05;22.52;;;;;;;6.80;69.71;100315.59;5087918;28;20058;-72
2022/01/14 06:11:48;;;;;;;30.05;18.10;;;;;;;6.84;69.75;100334.63;5089834;28;20514;-72
2022/01/14 06:14:15;;;;;;;20.52;12.70;;;;;;;6.95;69.46;100328.78;5090229;28;20052;-71
2022/01/14 06:16:42;;;;;;;21.75;12.18;;;;;;;6.98;69.19;100321.59;5088964;28;20403;-75
2022/01/14 06:19:09;;;;;;;31.50;18.65;;;;;;;6.90;69.28;100323.81;5093302;28;20040;-77
2022/01/14 06:21:36;;;;;;;32.55;19.15;;;;;;;6.89;69.27;100301.09;5091498;28;20099;-72
2022/01/14 06:24:04;;;;;;;28.20;22.65;;;;;;;6.76;69.39;100313.22;5088728;28;20119;-78
2022/01/14 06:26:31;;;;;;;27.45;22.30;;;;;;;6.78;69.46;100321.88;5088450;28;20070;-74
2022/01/14 06:28:59;;;;;;;26.20;11.77;;;;;;;6.92;69.36;100308.81;5089012;28;20142;-74
2022/01/14 06:31:26;;;;;;;25.60;16.58;;;;;;;6.93;69.37;100305.25;5088065;28;20110;-71
2022/01/14 06:33:53;;;;;;;26.92;18.00;;;;;;;6.89;69.49;100308.97;5087978;28;20187;-72
2022/01/14 06:36:20;;;;;;;31.73;19.17;;;;;;;6.88;69.39;100307.31;5089416;28;20048;-74
2022/01/14 06:38:47;;;;;;;27.33;18.50;;;;;;;6.86;69.44;100303.88;5089375;28;20071;-72
2022/01/14 06:41:14;;;;;;;26.70;16.75;;;;;;;6.92;69.39;100303.56;5090131;28;20047;-72
2022/01/14 06:43:41;;;;;;;31.27;23.95;;;;;;;6.83;69.49;100260.28;5088257;28;20135;-76
2022/01/14 06:46:10;;;;;;;23.48;14.88;;;;;;;6.94;69.72;100295.59;5088858;28;20058;-71
2022/01/14 06:48:37;;;;;;;28.00;18.52;;;;;;;6.94;69.65;100280.69;5088014;28;20736;-75
2022/01/14 06:51:04;;;;;;;24.65;14.93;;;;;;;6.92;69.50;100298.31;5092849;28;20048;-70
2022/01/14 06:53:31;;;;;;;23.35;11.00;;;;;;;6.96;69.33;100267.47;5091378;28;20123;-74
2022/01/14 06:55:58;;;;;;;26.20;15.65;;;;;;;7.01;69.46;100275.94;5088296;28;20100;-74
2022/01/14 06:58:25;;;;;;;28.13;22.50;;;;;;;6.93;69.44;100265.00;5088282;28;20131;-73
2022/01/14 07:00:53;;;;;;;26.52;18.05;;;;;;;6.99;69.39;100267.31;5089582;28;20044;-73
2022/01/14 07:03:21;;;;;;;30.25;20.00;;;;;;;7.01;69.40;100263.66;5087570;28;20051;-73
2022/01/14 07:05:48;;;;;;;25.98;20.60;;;;;;;6.96;69.48;100268.31;5087086;28;20044;-76
2022/01/14 07:08:15;;;;;;;25.48;19.95;;;;;;;7.00;69.41;100269.81;5087316;28;20048;-72
2022/01/14 07:10:43;;;;;;;26.83;20.55;;;;;;;7.01;69.42;100253.16;5090573;28;20048;-70
2022/01/14 07:13:12;;;;;;;37.85;23.90;;;;;;;6.98;69.46;100255.94;5089696;28;20054;-73
2022/01/14 07:15:39;;;;;;;24.65;18.75;;;;;;;6.98;69.60;100260.34;5094500;28;20039;-76
2022/01/14 07:18:07;;;;;;;28.52;17.13;;;;;;;6.98;69.60;100269.06;5108368;28;20050;-74
2022/01/14 07:20:35;;;;;;;27.15;19.63;;;;;;;6.99;69.59;100270.78;5110914;28;20135;-73
2022/01/14 07:23:02;;;;;;;28.58;20.88;;;;;;;6.97;69.51;100251.63;5110752;28;20503;-72
2022/01/14 07:25:29;;;;;;;32.28;18.20;;;;;;;7.08;69.13;100267.63;5107549;28;20047;-71
2022/01/14 07:27:56;;;;;;;27.25;21.15;;;;;;;7.02;69.65;100227.72;5107479;28;20052;-74
2022/01/14 07:30:24;;;;;;;23.63;14.77;;;;;;;7.00;69.70;100258.47;5105765;28;20480;-73
2022/01/14 07:32:51;;;;;;;28.80;19.38;;;;;;;7.07;69.50;100234.38;5108013;28;20052;-74
2022/01/14 07:35:18;;;;;;;28.60;20.40;;;;;;;7.11;69.40;100234.22;5105833;28;20044;-74
2022/01/14 07:37:46;;;;;;;26.75;23.90;;;;;;;7.00;69.54;100242.72;5110110;28;20126;-72
2022/01/14 07:40:13;;;;;;;25.85;20.00;;;;;;;6.91;69.70;100232.75;5109073;28;20123;-69
2022/01/14 07:42:41;;;;;;;28.63;21.55;;;;;;;6.98;69.72;100208.66;5105788;28;20471;-71
2022/01/14 07:45:09;;;;;;;33.05;17.52;;;;;;;7.10;69.61;100245.69;5109492;28;20181;-70
2022/01/14 07:47:36;;;;;;;28.70;24.98;;;;;;;6.97;69.93;100235.88;5111259;28;20054;-74
2022/01/14 07:50:05;;;;;;;28.50;22.70;;;;;;;7.02;70.01;100235.59;5103997;28;20102;-71
2022/01/14 07:52:35;;;;;;;23.10;19.02;;;;;;;6.87;70.50;100247.84;5067752;28;20048;-70
2022/01/14 07:55:05;;;;;;;21.60;17.20;;;;;;;6.98;70.20;100253.31;5106297;28;20142;-69
2022/01/14 07:57:32;;;;;;;23.40;19.50;;;;;;;6.96;70.30;100242.06;5100630;28;20043;-72
2022/01/14 08:00:00;;;;;;;26.38;22.23;;;;;;;7.03;69.98;100229.41;5105224;28;20040;-73
2022/01/14 08:02:29;;;;;;;23.83;15.90;;;;;;;7.15;69.85;100252.34;5104388;28;20053;-71
2022/01/14 08:04:56;;;;;;;31.40;21.83;;;;;;;7.21;69.65;100238.00;5102961;28;20230;-74
2022/01/14 08:07:28;;;;;;;23.95;14.80;;;;;;;7.14;69.72;100229.63;5104464;28;20051;-72
2022/01/14 08:09:55;;;;;;;28.27;17.38;;;;;;;7.31;69.38;100241.78;5103202;28;20054;-72
2022/01/14 08:12:24;;;;;;;29.08;21.38;;;;;;;7.26;69.36;100238.59;5104558;28;20050;-74
2022/01/14 08:14:51;;;;;;;27.98;22.45;;;;;;;7.27;69.35;100204.34;5104568;28;20622;-70
2022/01/14 08:17:20;;;;;;;22.48;16.83;;;;;;;7.11;69.93;100249.97;5104816;28;20043;-74
2022/01/14 08:19:47;;;;;;;24.25;21.30;;;;;;;7.11;70.08;100249.97;5106083;28;20095;-72
2022/01/14 08:22:14;;;;;;;30.00;21.77;;;;;;;7.14;70.03;100247.19;5105547;28;20678;-74
2022/01/14 08:24:41;;;;;;;30.33;21.40;;;;;;;7.26;69.78;100249.09;5101925;28;20124;-73
2022/01/14 08:27:08;;;;;;;24.13;21.05;;;;;;;7.28;69.59;100236.72;5108005;28;20048;-71
2022/01/14 08:29:38;;;;;;;28.38;15.93;;;;;;;7.37;69.61;100246.69;5107928;28;20043;-74
2022/01/14 08:32:05;;;;;;;20.13;13.85;;;;;;;7.30;69.81;100242.72;5108246;28;20515;-71
2022/01/14 08:34:33;;;;;;;25.63;18.73;;;;;;;7.27;69.88;100224.50;5106258;28;20127;-71
2022/01/14 08:37:00;;;;;;;24.60;14.35;;;;;;;7.36;69.91;100239.72;5105674;28;20059;-71
2022/01/14 08:39:27;;;;;;;27.83;21.50;;;;;;;7.42;69.61;100236.75;5103200;28;20050;-72
2022/01/14 08:41:56;;;;;;;26.33;19.60;;;;;;;7.42;69.53;100210.47;5104947;28;20149;-71
2022/01/14 08:44:23;;;;;;;25.15;19.50;;;;;;;7.41;69.66;100216.66;5101741;28;20658;-70
2022/01/14 08:46:53;;;;;;;24.70;22.10;;;;;;;7.28;70.08;100194.69;5104972;28;20040;-74
2022/01/14 08:49:21;;;;;;;28.48;18.65;;;;;;;7.25;70.22;100211.44;5105179;28;20043;-70
2022/01/14 08:51:49;;;;;;;27.15;19.10;;;;;;;7.37;69.94;100191.50;5098841;28;20061;-73
2022/01/14 08:54:17;;;;;;;24.55;19.73;;;;;;;7.28;70.33;100176.28;5103757;28;20576;-72
2022/01/14 08:56:45;;;;;;;25.63;17.77;;;;;;;7.35;70.25;100182.88;5099411;28;20321;-74
2022/01/14 08:59:16;;;;;;;23.77;17.13;;;;;;;7.51;69.89;100213.47;5099944;28;20128;-71
2022/01/14 09:01:44;;;;;;;23.27;18.40;;;;;;;7.47;69.83;100181.25;5100208;28;20066;-74
2022/01/14 09:04:13;;;;;;;26.88;20.60;;;;;;;7.52;69.73;100181.00;5103343;28;20045;-71
2022/01/14 09:06:40;;;;;;;26.40;18.40;;;;;;;7.58;69.57;100193.75;5102753;28;20159;-75
2022/01/14 09:09:07;;;;;;;17.40;10.38;;;;;;;7.71;69.40;100189.44;5104225;28;20065;-73
2022/01/14 09:11:34;;;;;;;26.70;16.23;;;;;;;7.79;69.03;100192.44;5102880;28;20044;-73
2022/01/14 09:14:02;;;;;;;28.95;24.40;;;;;;;7.57;69.32;100153.50;5101716;28;20094;-73
2022/01/14 09:16:29;;;;;;;22.88;16.85;;;;;;;7.60;69.40;100176.97;5104304;28;20050;-70
2022/01/14 09:18:56;;;;;;;22.80;14.93;;;;;;;7.69;69.16;100172.94;5103217;28;20047;-73
2022/01/14 09:21:26;;;;;;;28.30;17.55;;;;;;;7.79;69.09;100168.78;5100702;28;20605;-70
2022/01/14 09:23:54;;;;;;;32.35;21.00;;;;;;;7.64;69.41;100186.34;5102120;28;20044;-72
2022/01/14 09:26:21;;;;;;;20.80;16.60;;;;;;;7.62;69.33;100204.00;5102573;28;20052;-70
2022/01/14 09:28:49;;;;;;;24.20;17.45;;;;;;;7.65;69.42;100188.03;5101795;28;20128;-73
2022/01/14 09:31:17;;;;;;;25.42;22.80;;;;;;;7.58;69.45;100175.34;5104424;28;20047;-73
2022/01/14 09:33:44;;;;;;;25.23;22.60;;;;;;;7.62;69.45;100179.50;5103753;28;20066;-72
2022/01/14 09:36:12;;;;;;;25.70;18.65;;;;;;;7.53;69.65;100193.22;5103235;28;20047;-73
2022/01/14 09:38:41;;;;;;;24.75;15.43;;;;;;;7.66;69.67;100189.72;5067687;28;20044;-72
2022/01/14 09:41:09;;;;;;;27.23;23.33;;;;;;;7.46;70.05;100167.28;5105995;28;20044;-72
2022/01/14 09:43:39;;;;;;;27.98;21.08;;;;;;;7.47;70.16;100184.75;5106740;28;20134;-74
2022/01/14 09:46:08;;;;;;;31.23;24.85;;;;;;;7.41;70.36;100185.09;5107769;28;20130;-73
2022/01/14 09:48:36;;;;;;;29.52;19.73;;;;;;;7.57;70.03;100171.06;5106570;28;20075;-71
2022/01/14 09:51:03;;;;;;;28.08;16.88;;;;;;;7.74;69.61;100181.38;5107043;28;20043;-71
2022/01/14 09:53:32;;;;;;;28.10;24.25;;;;;;;7.66;69.71;100181.00;5104889;28;20652;-70
2022/01/14 09:56:04;;;;;;;29.73;20.55;;;;;;;7.65;69.84;100182.78;5105688;28;20082;-70
2022/01/14 09:58:36;;;;;;;31.27;18.17;;;;;;;7.60;69.86;100168.25;5108245;28;20050;-71
2022/01/14 10:01:09;;;;;;;28.08;25.02;;;;;;;7.52;70.03;100155.53;5106580;28;20131;-73
2022/01/14 10:03:50;;;;;;;30.92;20.33;;;;;;;7.54;70.47;100164.19;5114700;28;20434;-72
2022/01/14 10:06:36;;;;;;;39.10;26.48;;;;;;;7.60;70.20;100163.00;5106249;28;20550;-72
2022/01/14 10:09:07;;;;;;;;;;;;;;;7.82;69.54;100144.91;5105475;28;20052;-72
2022/01/14 10:11:42;;;;;;;28.30;20.95;;;;;;;7.62;70.08;100145.34;5107032;28;19962;-71
2022/01/14 10:14:13;;;;;;;25.42;18.88;;;;;;;7.46;70.39;100156.78;5106484;28;20054;-71
2022/01/14 10:16:43;;;;;;;28.50;23.52;;;;;;;7.46;70.49;100143.63;5105123;28;20639;-73
2022/01/14 10:19:22;;;;;;;26.00;19.50;;;;;;;7.41;70.94;100137.81;5071002;28;20055;-74
2022/01/14 10:21:50;;;;;;;26.77;23.77;;;;;;;7.40;70.90;100140.53;5103891;28;20048;-69
2022/01/14 10:24:20;;;;;;;27.63;18.73;;;;;;;7.55;70.55;100138.75;5104998;28;20063;-70
2022/01/14 10:27:03;;;;;;;24.55;16.00;;;;;;;7.65;70.40;100145.13;5106138;28;20051;-72
2022/01/14 10:29:34;;;;;;;28.30;21.23;;;;;;;7.68;70.10;100149.34;5111974;28;20338;-71
2022/01/14 10:32:03;;;;;;;26.23;14.90;;;;;;;7.72;70.01;100156.94;5104702;28;20043;-74
2022/01/14 10:34:31;;;;;;;27.08;18.20;;;;;;;7.80;70.20;100114.41;5106173;28;20092;-73
2022/01/14 10:37:15;;;;;;;28.90;22.70;;;;;;;7.66;70.32;100137.13;5104645;28;20063;-71
2022/01/14 10:39:48;;;;;;;27.75;20.00;;;;;;;7.65;70.24;100132.84;5106062;28;20043;-74
2022/01/14 10:42:25;;;;;;;27.13;15.23;;;;;;;7.73;70.36;100137.63;5105774;28;20430;-71
2022/01/14 10:44:52;;;;;;;29.00;20.48;;;;;;;7.77;69.93;100127.75;5104522;28;20126;-74
2022/01/14 10:47:21;;;;;;;28.58;22.02;;;;;;;7.61;70.30;100107.66;5105512;28;20047;-72
2022/01/14 10:49:49;;;;;;;26.15;20.50;;;;;;;7.71;70.16;100121.09;5104236;28;20050;-70
2022/01/14 10:52:18;;;;;;;30.95;21.15;;;;;;;7.62;70.23;100111.16;5102620;28;20398;-71
2022/01/14 10:54:47;;;;;;;23.20;20.33;;;;;;;7.59;70.24;100093.78;5105709;28;20035;-74
2022/01/14 10:57:20;;;;;;;31.10;20.17;;;;;;;7.78;69.97;100114.50;5105375;28;20539;-70
2022/01/14 10:59:51;;;;;;;26.95;22.55;;;;;;;7.81;69.86;100101.19;5103759;28;20086;-74
2022/01/14 11:02:36;;;;;;;26.70;23.88;;;;;;;7.86;69.85;100100.88;5105581;28;20646;-73
2022/01/14 11:05:06;;;;;;;26.57;20.17;;;;;;;7.82;69.64;100091.50;5105024;28;20093;-73
2022/01/14 11:07:34;;;;;;;23.92;20.60;;;;;;;7.70;69.86;100085.22;5105555;28;20247;-72
2022/01/14 11:10:01;;;;;;;28.60;24.67;;;;;;;7.60;69.97;100111.25;5105000;28;20040;-73
2022/01/14 11:12:30;;;;;;;20.55;17.05;;;;;;;7.63;69.87;100091.81;5103901;28;20111;-73
2022/01/14 11:14:58;;;;;;;24.48;20.02;;;;;;;7.77;69.67;100072.53;5104740;28;20048;-71
2022/01/14 11:17:25;;;;;;;25.20;18.98;;;;;;;7.56;70.24;100082.63;5104658;28;20050;-70
2022/01/14 11:19:53;;;;;;;19.05;12.30;;;;;;;7.49;70.14;100081.31;5103180;28;20047;-73
2022/01/14 11:28:30;;;;;;;19.63;12.30;;;;;;;7.53;70.65;100117.00;5104391;28;20537;-72
2022/01/14 11:30:59;;;;;;;25.95;21.52;;;;;;;7.39;70.73;100068.75;5107052;28;20046;-73
2022/01/14 11:33:40;;;;;;;21.83;19.48;;;;;;;7.23;71.14;100091.66;5107054;28;20509;-73
2022/01/14 11:36:08;;;;;;;22.35;17.60;;;;;;;7.24;71.10;100094.19;5105424;28;20103;-75
2022/01/14 11:38:41;;;;;;;22.80;15.50;;;;;;;7.56;70.54;100091.38;5105188;28;20109;-73
2022/01/14 11:41:09;;;;;;;21.77;15.93;;;;;;;7.52;70.23;100096.91;5104390;28;20055;-71
2022/01/14 11:43:43;;;;;;;24.55;18.05;;;;;;;7.49;70.45;100086.56;5104205;28;20082;-74
2022/01/14 11:46:15;;;;;;;28.15;19.52;;;;;;;7.36;70.67;100097.84;5105110;28;20640;-77
2022/01/14 11:48:47;;;;;;;24.27;17.90;;;;;;;7.46;70.59;100109.47;5105354;28;20623;-70
2022/01/14 11:51:16;;;;;;;25.77;18.08;;;;;;;7.52;70.14;100091.63;5104112;28;20043;-72